createdAt,value
2022-08-16T00:00:03.257Z,99.99
2022-08-16T00:00:54.518Z,99.99
2022-08-16T00:01:53.542Z,99.99
2022-08-16T00:02:53.600Z,99.99
2022-08-16T00:03:53.488Z,99.99
2022-08-16T00:04:53.537Z,99.99
2022-08-16T00:05:57.553Z,99.99
2022-08-16T00:06:53.445Z,99.99
2022-08-16T00:07:56.161Z,99.99
2022-08-16T00:08:53.427Z,99.99
2022-08-16T00:09:53.409Z,99.99
2022-08-16T00:10:53.550Z,99.99
2022-08-16T00:11:55.428Z,99.99
2022-08-16T00:12:53.419Z,99.99
2022-08-16T00:13:55.624Z,99.99
2022-08-16T00:14:56.882Z,99.99
2022-08-16T00:15:54.297Z,99.99
2022-08-16T00:17:01.479Z,99.99
2022-08-16T00:17:56.484Z,99.99
2022-08-16T00:18:53.315Z,99.99
2022-08-16T00:19:53.348Z,99.99
2022-08-16T00:20:53.295Z,99.99
2022-08-16T00:21:56.056Z,99.99
2022-08-16T00:22:54.268Z,99.99
2022-08-16T00:23:53.255Z,99.99
2022-08-16T00:24:53.241Z,99.99
2022-08-16T00:26:36.408Z,99.99
2022-08-16T00:26:54.242Z,99.99
2022-08-16T00:27:53.209Z,99.99
2022-08-16T00:28:54.801Z,99.99
2022-08-16T00:30:00.449Z,99.99
2022-08-16T00:30:54.199Z,99.99
2022-08-16T00:32:00.555Z,99.99
2022-08-16T00:32:57.250Z,99.73
2022-08-16T00:33:53.141Z,99.63
2022-08-16T00:34:54.267Z,99.99
2022-08-16T00:35:53.119Z,99.99
2022-08-16T00:36:55.711Z,99.99
2022-08-16T00:37:58.498Z,99.99
2022-08-16T00:38:54.088Z,99.99
2022-08-16T00:39:57.138Z,99.99
2022-08-16T00:40:54.341Z,99.99
2022-08-16T00:41:53.078Z,99.99
2022-08-16T00:42:54.818Z,99.99
2022-08-16T00:43:53.042Z,99.99
2022-08-16T00:44:53.026Z,99.99
2022-08-16T00:45:58.302Z,99.99
2022-08-16T00:47:02.415Z,99.99
2022-08-16T00:47:53.982Z,99.99
2022-08-16T00:48:52.978Z,99.99
2022-08-16T00:49:56.508Z,99.99
2022-08-16T00:50:55.420Z,99.99
2022-08-16T00:51:55.133Z,99.58
2022-08-16T00:52:53.825Z,99.48
2022-08-16T00:53:52.920Z,99.53
2022-08-16T00:54:52.906Z,98.93
2022-08-16T00:55:52.918Z,99.23
2022-08-16T00:56:56.364Z,99.63
2022-08-16T00:58:00.156Z,99.53
2022-08-16T00:58:53.863Z,99.23
2022-08-16T00:59:58.721Z,99.73
2022-08-16T01:00:54.539Z,99.03
2022-08-16T01:01:52.830Z,99.08
2022-08-16T01:02:52.877Z,99.18
2022-08-16T01:03:52.808Z,99.43
2022-08-16T01:05:09.472Z,99.58
2022-08-16T01:05:53.777Z,99.28
2022-08-16T01:07:02.334Z,99.48
2022-08-16T01:07:53.830Z,99.48
2022-08-16T01:08:53.689Z,98.88
2022-08-16T01:09:52.747Z,98.78
2022-08-16T01:10:52.747Z,99.48
2022-08-16T01:11:55.094Z,99.58
2022-08-16T01:12:52.705Z,99.78
2022-08-16T01:13:53.183Z,99.99
2022-08-16T01:14:53.273Z,99.99
2022-08-16T01:15:53.635Z,99.99
2022-08-16T01:16:52.659Z,99.99
2022-08-16T01:17:55.827Z,99.99
2022-08-16T01:18:52.646Z,99.99
2022-08-16T01:19:52.632Z,99.99
2022-08-16T01:20:52.634Z,99.99
2022-08-16T01:21:52.604Z,99.99
2022-08-16T01:22:52.773Z,99.99
2022-08-16T01:24:01.195Z,99.99
2022-08-16T01:24:55.607Z,99.99
2022-08-16T01:25:59.949Z,99.99
2022-08-16T01:26:53.544Z,99.99
2022-08-16T01:27:52.601Z,99.99
2022-08-16T01:28:52.563Z,99.99
2022-08-16T01:29:57.820Z,99.99
2022-08-16T01:30:53.501Z,99.99
2022-08-16T01:31:52.495Z,99.99
2022-08-16T01:33:01.665Z,99.99
2022-08-16T01:33:53.521Z,99.99
2022-08-16T01:34:56.885Z,99.99
2022-08-16T01:35:53.143Z,99.99
2022-08-16T01:36:55.048Z,99.99
2022-08-16T01:37:54.235Z,99.99
2022-08-16T01:38:57.190Z,99.99
2022-08-16T01:39:52.513Z,99.99
2022-08-16T01:40:52.395Z,99.99
2022-08-16T01:41:52.377Z,99.99
2022-08-16T01:42:54.030Z,99.99
2022-08-16T01:43:53.781Z,99.99
2022-08-16T01:44:52.741Z,99.99
2022-08-16T01:45:57.889Z,99.99
2022-08-16T01:46:53.323Z,99.99
2022-08-16T01:47:52.342Z,99.99
2022-08-16T01:48:52.355Z,99.99
2022-08-16T01:50:41.799Z,99.99
2022-08-16T01:51:16.264Z,99.99
2022-08-16T01:51:53.265Z,99.52
2022-08-16T01:52:52.260Z,99.99
2022-08-16T01:53:55.324Z,99.99
2022-08-16T01:54:53.502Z,99.99
2022-08-16T01:55:54.189Z,99.43
2022-08-16T01:56:52.218Z,99.99
2022-08-16T01:57:53.829Z,99.99
2022-08-16T01:58:52.191Z,99.99
2022-08-16T01:59:54.748Z,99.33
2022-08-16T02:00:52.167Z,99.73
2022-08-16T02:01:53.171Z,99.99
2022-08-16T02:02:53.914Z,99.99
2022-08-16T02:03:52.140Z,99.99
2022-08-16T02:04:54.569Z,99.99
2022-08-16T02:05:52.268Z,99.99
2022-08-16T02:06:52.104Z,99.99
2022-08-16T02:07:53.465Z,99.99
2022-08-16T02:08:52.092Z,99.99
2022-08-16T02:09:57.333Z,99.99
2022-08-16T02:10:53.061Z,99.99
2022-08-16T02:11:53.241Z,99.99
2022-08-16T02:12:56.134Z,99.99
2022-08-16T02:13:54.877Z,99.99
2022-08-16T02:14:52.029Z,99.99
2022-08-16T02:15:52.005Z,99.99
2022-08-16T02:16:52.143Z,99.99
2022-08-16T02:17:52.516Z,99.99
2022-08-16T02:18:51.972Z,99.99
2022-08-16T02:19:59.115Z,99.99
2022-08-16T02:20:53.546Z,99.99
2022-08-16T02:22:08.634Z,99.99
2022-08-16T02:22:53.255Z,99.77
2022-08-16T02:23:55.791Z,99.87
2022-08-16T02:24:51.901Z,99.48
2022-08-16T02:25:54.687Z,99.68
2022-08-16T02:26:51.879Z,99.63
2022-08-16T02:27:51.864Z,99.57
2022-08-16T02:28:52.713Z,99.63
2022-08-16T02:29:51.898Z,99.68
2022-08-16T02:30:52.869Z,99.57
2022-08-16T02:32:04.162Z,99.48
2022-08-16T02:32:52.809Z,99.37
2022-08-16T02:33:52.681Z,99.37
2022-08-16T02:34:51.812Z,99.57
2022-08-16T02:35:55.389Z,99.37
2022-08-16T02:36:52.765Z,99.02
2022-08-16T02:37:52.994Z,98.97
2022-08-16T02:38:51.769Z,99.13
2022-08-16T02:39:53.983Z,99.27
2022-08-16T02:40:51.722Z,99.77
2022-08-16T02:42:43.301Z,99.37
2022-08-16T02:43:43.305Z,99.37
2022-08-16T02:44:43.276Z,99.57
2022-08-16T02:45:43.579Z,99.48
2022-08-16T02:46:49.704Z,99.48
2022-08-16T02:48:01.258Z,99.48
2022-08-16T02:48:47.423Z,99.57
2022-08-16T02:50:25.831Z,99.68
2022-08-16T02:50:53.901Z,99.48
2022-08-16T02:51:44.198Z,99.87
2022-08-16T02:52:43.800Z,99.87
2022-08-16T02:53:43.678Z,99.87
2022-08-16T02:54:43.171Z,99.68
2022-08-16T02:55:43.157Z,99.98
2022-08-16T02:56:43.180Z,99.82
2022-08-16T02:57:54.119Z,99.99
2022-08-16T02:58:44.388Z,99.99
2022-08-16T02:59:43.112Z,99.99
2022-08-16T03:00:45.435Z,99.99
2022-08-16T03:01:44.116Z,99.99
2022-08-16T03:02:43.111Z,99.99
2022-08-16T03:04:40.838Z,99.99
2022-08-16T03:04:52.484Z,99.99
2022-08-16T03:05:44.043Z,99.99
2022-08-16T03:06:44.052Z,99.99
2022-08-16T03:07:43.019Z,99.99
2022-08-16T03:08:52.359Z,99.99
2022-08-16T03:09:44.310Z,99.99
2022-08-16T03:10:42.991Z,99.99
2022-08-16T03:11:43.012Z,99.99
2022-08-16T03:12:55.042Z,99.99
2022-08-16T03:13:43.956Z,99.99
2022-08-16T03:14:43.073Z,99.99
2022-08-16T03:15:42.954Z,99.99
2022-08-16T03:16:59.117Z,99.99
2022-08-16T03:17:53.055Z,99.99
2022-08-16T03:18:43.900Z,99.99
2022-08-16T03:19:48.245Z,99.99
2022-08-16T03:20:43.992Z,99.99
2022-08-16T03:21:43.884Z,99.99
2022-08-16T03:22:45.425Z,99.99
2022-08-16T03:23:42.843Z,99.99
2022-08-16T03:24:42.833Z,99.99
2022-08-16T03:25:44.718Z,99.99
2022-08-16T03:26:43.829Z,99.99
2022-08-16T03:27:43.056Z,99.99
2022-08-16T03:28:42.792Z,99.99
2022-08-16T03:29:54.388Z,99.99
2022-08-16T03:30:43.762Z,99.99
2022-08-16T03:31:42.877Z,99.99
2022-08-16T03:32:42.801Z,99.99
2022-08-16T03:33:42.734Z,99.99
2022-08-16T03:34:42.734Z,99.99
2022-08-16T03:35:43.740Z,99.99
2022-08-16T03:36:42.723Z,99.99
2022-08-16T03:38:02.156Z,99.99
2022-08-16T03:38:43.677Z,99.99
2022-08-16T03:39:43.511Z,99.99
2022-08-16T03:40:42.733Z,99.99
2022-08-16T03:41:50.225Z,99.99
2022-08-16T03:43:00.608Z,99.99
2022-08-16T03:43:51.309Z,99.99
2022-08-16T03:44:49.335Z,99.99
2022-08-16T03:45:43.604Z,99.99
2022-08-16T03:46:47.446Z,99.99
2022-08-16T03:47:43.618Z,99.99
2022-08-16T03:48:42.601Z,99.99
2022-08-16T03:49:42.556Z,99.99
2022-08-16T03:50:42.546Z,99.99
2022-08-16T03:51:43.542Z,99.99
2022-08-16T03:52:43.693Z,99.99
2022-08-16T03:53:42.528Z,99.99
2022-08-16T03:54:53.275Z,99.99
2022-08-16T03:55:45.714Z,99.99
2022-08-16T03:56:57.305Z,99.99
2022-08-16T03:57:43.493Z,99.99
2022-08-16T03:58:44.529Z,99.99
2022-08-16T03:59:43.637Z,99.99
2022-08-16T04:00:42.440Z,99.99
2022-08-16T04:01:42.420Z,99.99
2022-08-16T04:02:42.547Z,99.99
2022-08-16T04:03:42.404Z,99.99
2022-08-16T04:04:42.391Z,99.99
2022-08-16T04:05:44.311Z,99.99
2022-08-16T04:06:42.368Z,99.99
2022-08-16T04:07:42.379Z,99.99
2022-08-16T04:08:42.365Z,99.99
2022-08-16T04:09:42.337Z,99.99
2022-08-16T04:10:42.327Z,99.99
2022-08-16T04:11:42.312Z,99.99
2022-08-16T04:12:53.552Z,99.99
2022-08-16T04:13:58.955Z,99.99
2022-08-16T04:14:46.660Z,99.99
2022-08-16T04:15:42.269Z,99.99
2022-08-16T04:16:42.331Z,99.99
2022-08-16T04:17:42.247Z,99.99
2022-08-16T04:18:42.269Z,99.99
2022-08-16T04:19:45.630Z,99.99
2022-08-16T04:20:42.298Z,99.99
2022-08-16T04:21:47.123Z,99.99
2022-08-16T04:22:43.232Z,99.99
2022-08-16T04:23:42.179Z,99.99
2022-08-16T04:24:42.173Z,99.99
2022-08-16T04:25:43.160Z,99.99
2022-08-16T04:26:46.204Z,99.99
2022-08-16T04:27:42.138Z,99.99
2022-08-16T04:28:54.398Z,99.99
2022-08-16T04:29:46.089Z,99.99
2022-08-16T04:30:42.106Z,99.99
2022-08-16T04:31:42.103Z,99.99
2022-08-16T04:32:42.098Z,99.99
2022-08-16T04:33:50.587Z,99.99
2022-08-16T04:34:43.063Z,99.99
2022-08-16T04:35:42.054Z,99.99
2022-08-16T04:36:43.038Z,99.99
2022-08-16T04:37:43.047Z,99.99
2022-08-16T04:38:42.017Z,99.99
2022-08-16T04:39:46.789Z,99.99
2022-08-16T04:40:43.056Z,99.99
2022-08-16T04:41:43.046Z,99.99
2022-08-16T04:42:41.968Z,99.99
2022-08-16T04:43:43.754Z,99.99
2022-08-16T04:44:54.319Z,99.99
2022-08-16T04:45:42.936Z,99.99
2022-08-16T04:47:00.848Z,99.99
2022-08-16T04:47:42.914Z,99.72
2022-08-16T04:48:41.981Z,99.37
2022-08-16T04:49:46.129Z,99.57
2022-08-16T04:50:43.625Z,99.37
2022-08-16T04:51:41.877Z,99.68
2022-08-16T04:52:41.880Z,99.37
2022-08-16T04:53:41.848Z,99.48
2022-08-16T04:54:43.183Z,99.37
2022-08-16T04:55:41.826Z,99.48
2022-08-16T04:56:46.237Z,98.67
2022-08-16T04:57:41.819Z,99.17
2022-08-16T04:58:46.051Z,99.22
2022-08-16T04:59:41.933Z,98.87
2022-08-16T05:00:41.808Z,98.52
2022-08-16T05:01:58.208Z,98.82
2022-08-16T05:02:43.001Z,98.82
2022-08-16T05:04:00.611Z,98.63
2022-08-16T05:04:42.727Z,98.32
2022-08-16T05:05:45.324Z,98.57
2022-08-16T05:06:45.819Z,98.63
2022-08-16T05:07:59.506Z,98.32
2022-08-16T05:08:47.371Z,98.63
2022-08-16T05:09:45.174Z,98.17
2022-08-16T05:10:42.665Z,98.07
2022-08-16T05:11:41.845Z,98.57
2022-08-16T05:12:41.689Z,98.82
2022-08-16T05:13:42.617Z,98.72
2022-08-16T05:14:45.294Z,98.87
2022-08-16T05:15:41.611Z,98.93
2022-08-16T05:16:41.620Z,98.77
2022-08-16T05:17:41.584Z,98.27
2022-08-16T05:18:41.576Z,98.67
2022-08-16T05:19:46.734Z,98.82
2022-08-16T05:21:01.436Z,98.97
2022-08-16T05:21:42.559Z,99.02
2022-08-16T05:22:44.604Z,98.63
2022-08-16T05:23:44.284Z,98.13
2022-08-16T05:24:42.506Z,98.63
2022-08-16T05:25:48.339Z,98.43
2022-08-16T05:26:43.047Z,98.02
2022-08-16T05:27:42.812Z,98.22
2022-08-16T05:28:41.465Z,98.32
2022-08-16T05:30:00.765Z,98.72
2022-08-16T05:30:43.132Z,98.72
2022-08-16T05:31:44.213Z,98.63
2022-08-16T05:32:45.604Z,98.63
2022-08-16T05:33:42.252Z,98.72
2022-08-16T05:34:41.428Z,98.72
2022-08-16T05:35:41.388Z,98.63
2022-08-16T05:36:41.397Z,98.32
2022-08-16T05:37:41.359Z,98.22
2022-08-16T05:38:41.355Z,97.32
2022-08-16T05:39:41.395Z,97.67
2022-08-16T05:40:41.330Z,97.28
2022-08-16T05:41:45.591Z,97.83
2022-08-16T05:42:41.309Z,97.63
2022-08-16T05:43:43.573Z,96.43
2022-08-16T05:44:41.290Z,96.33
2022-08-16T05:45:41.333Z,95.62
2022-08-16T05:46:43.888Z,96.43
2022-08-16T05:47:43.443Z,95.38
2022-08-16T05:48:41.247Z,95.88
2022-08-16T05:49:41.226Z,95.58
2022-08-16T05:50:41.684Z,95.48
2022-08-16T05:51:41.672Z,95.23
2022-08-16T05:52:44.922Z,95.23
2022-08-16T05:53:41.353Z,94.64
2022-08-16T05:54:46.599Z,94.49
2022-08-16T05:55:42.189Z,93.49
2022-08-16T05:56:41.155Z,93.19
2022-08-16T05:57:41.946Z,92.49
2022-08-16T05:58:41.132Z,92.25
2022-08-16T05:59:41.119Z,91.89
2022-08-16T06:00:41.448Z,92.05
2022-08-16T06:01:41.192Z,91.75
2022-08-16T06:02:41.379Z,92.14
2022-08-16T06:03:41.075Z,91.55
2022-08-16T06:04:44.908Z,91.45
2022-08-16T06:05:41.430Z,92.05
2022-08-16T06:06:41.047Z,92.05
2022-08-16T06:07:41.033Z,91.40
2022-08-16T06:08:42.211Z,90.66
2022-08-16T06:09:43.453Z,89.86
2022-08-16T06:11:09.614Z,90.02
2022-08-16T06:11:43.169Z,89.42
2022-08-16T06:12:41.091Z,89.02
2022-08-16T06:13:42.025Z,88.98
2022-08-16T06:14:40.956Z,88.72
2022-08-16T06:15:41.499Z,88.48
2022-08-16T06:16:40.957Z,88.58
2022-08-16T06:17:42.610Z,88.18
2022-08-16T06:18:40.919Z,87.74
2022-08-16T06:19:44.445Z,87.34
2022-08-16T06:20:55.174Z,87.04
2022-08-16T06:21:41.884Z,86.50
2022-08-16T06:22:40.873Z,86.56
2022-08-16T06:23:40.849Z,86.22
2022-08-16T06:24:53.642Z,85.88
2022-08-16T06:25:41.877Z,83.95
2022-08-16T06:26:45.977Z,83.75
2022-08-16T06:27:41.814Z,83.01
2022-08-16T06:28:41.805Z,81.98
2022-08-16T06:29:40.792Z,81.29
2022-08-16T06:30:43.296Z,80.15
2022-08-16T06:31:48.871Z,80.05
2022-08-16T06:32:43.004Z,79.62
2022-08-16T06:33:44.541Z,79.02
2022-08-16T06:34:56.885Z,78.82
2022-08-16T06:35:41.869Z,78.35
2022-08-16T06:36:40.745Z,77.03
2022-08-16T06:37:40.705Z,76.29
2022-08-16T06:38:55.544Z,74.71
2022-08-16T06:39:46.599Z,74.38
2022-08-16T06:40:41.693Z,73.98
2022-08-16T06:41:41.694Z,73.35
2022-08-16T06:42:47.706Z,72.33
2022-08-16T06:43:41.649Z,72.42
2022-08-16T06:44:40.630Z,71.99
2022-08-16T06:45:43.515Z,71.89
2022-08-16T06:46:40.603Z,71.70
2022-08-16T06:47:52.605Z,70.44
2022-08-16T06:48:43.163Z,69.82
2022-08-16T06:49:40.593Z,68.57
2022-08-16T06:50:40.558Z,67.51
2022-08-16T06:51:45.923Z,66.60
2022-08-16T06:53:18.963Z,65.67
2022-08-16T06:53:41.526Z,64.36
2022-08-16T06:54:40.538Z,63.91
2022-08-16T06:55:42.898Z,62.37
2022-08-16T06:56:40.503Z,61.65
2022-08-16T06:57:40.490Z,60.05
2022-08-16T06:58:40.477Z,60.25
2022-08-16T06:59:52.390Z,59.95
2022-08-16T07:00:43.011Z,59.14
2022-08-16T07:01:44.304Z,57.57
2022-08-16T07:02:51.749Z,57.93
2022-08-16T07:03:55.116Z,57.42
2022-08-16T07:04:41.432Z,57.49
2022-08-16T07:05:40.400Z,55.80
2022-08-16T07:06:40.391Z,55.43
2022-08-16T07:07:40.378Z,55.80
2022-08-16T07:08:40.690Z,55.47
2022-08-16T07:09:40.383Z,54.74
2022-08-16T07:10:41.579Z,53.22
2022-08-16T07:11:45.617Z,52.41
2022-08-16T07:13:03.141Z,51.34
2022-08-16T07:14:03.737Z,51.41
2022-08-16T07:14:41.302Z,51.07
2022-08-16T07:15:50.647Z,49.29
2022-08-16T07:16:41.396Z,49.66
2022-08-16T07:17:40.293Z,48.25
2022-08-16T07:18:40.264Z,47.91
2022-08-16T07:20:03.260Z,46.11
2022-08-16T07:20:47.427Z,44.90
2022-08-16T07:21:46.411Z,45.51
2022-08-16T07:22:41.246Z,45.51
2022-08-16T07:23:40.946Z,45.80
2022-08-16T07:24:45.842Z,43.74
2022-08-16T07:25:41.190Z,44.30
2022-08-16T07:26:40.178Z,43.95
2022-08-16T07:27:41.261Z,43.05
2022-08-16T07:28:40.174Z,41.85
2022-08-16T07:29:40.297Z,41.33
2022-08-16T07:30:46.479Z,39.66
2022-08-16T07:31:41.168Z,40.26
2022-08-16T07:32:40.122Z,40.86
2022-08-16T07:33:52.656Z,41.03
2022-08-16T07:34:48.560Z,39.97
2022-08-16T07:35:44.130Z,39.97
2022-08-16T07:36:40.073Z,39.87
2022-08-16T07:37:40.215Z,40.65
2022-08-16T07:38:40.057Z,40.67
2022-08-16T07:39:43.448Z,39.49
2022-08-16T07:41:00.410Z,39.78
2022-08-16T07:41:41.027Z,40.34
2022-08-16T07:42:40.181Z,39.78
2022-08-16T07:43:40.409Z,38.99
2022-08-16T07:44:50.618Z,40.15
2022-08-16T07:45:43.098Z,39.47
2022-08-16T07:46:40.312Z,39.86
2022-08-16T07:47:39.975Z,40.12
2022-08-16T07:48:39.961Z,39.37
2022-08-16T07:49:53.112Z,39.45
2022-08-16T07:50:57.064Z,39.36
2022-08-16T07:51:40.926Z,39.29
2022-08-16T07:52:39.993Z,39.29
2022-08-16T07:53:43.750Z,40.19
2022-08-16T07:54:45.907Z,40.07
2022-08-16T07:55:45.686Z,39.16
2022-08-16T07:56:40.874Z,38.56
2022-08-16T07:57:44.391Z,38.83
2022-08-16T07:58:40.858Z,38.14
2022-08-16T07:59:42.813Z,38.28
2022-08-16T08:00:40.882Z,36.41
2022-08-16T08:01:39.913Z,35.32
2022-08-16T08:02:39.817Z,35.24
2022-08-16T08:03:42.484Z,36.49
2022-08-16T08:04:40.816Z,36.22
2022-08-16T08:05:39.784Z,36.43
2022-08-16T08:06:39.785Z,35.85
2022-08-16T08:07:39.768Z,36.43
2022-08-16T08:08:51.128Z,36.83
2022-08-16T08:09:43.393Z,36.80
2022-08-16T08:10:39.740Z,36.11
2022-08-16T08:11:39.730Z,35.30
2022-08-16T08:12:39.717Z,35.72
2022-08-16T08:13:42.288Z,35.95
2022-08-16T08:14:39.720Z,36.05
2022-08-16T08:15:39.699Z,36.82
2022-08-16T08:16:45.493Z,36.85
2022-08-16T08:17:42.866Z,36.45
2022-08-16T08:18:39.720Z,36.72
2022-08-16T08:19:40.340Z,35.82
2022-08-16T08:20:39.647Z,35.71
2022-08-16T08:22:01.254Z,35.78
2022-08-16T08:22:40.693Z,35.21
2022-08-16T08:23:42.885Z,35.32
2022-08-16T08:24:39.636Z,34.95
2022-08-16T08:25:53.854Z,36.20
2022-08-16T08:26:40.582Z,35.83
2022-08-16T08:27:39.578Z,36.05
2022-08-16T08:28:39.563Z,36.24
2022-08-16T08:29:40.388Z,36.20
2022-08-16T08:30:49.945Z,35.48
2022-08-16T08:31:40.538Z,34.02
2022-08-16T08:32:57.757Z,34.69
2022-08-16T08:33:43.884Z,33.91
2022-08-16T08:34:40.522Z,33.70
2022-08-16T08:35:41.014Z,33.41
2022-08-16T08:36:39.489Z,33.70
2022-08-16T08:37:55.280Z,34.28
2022-08-16T08:38:44.250Z,32.81
2022-08-16T08:39:54.747Z,32.49
2022-08-16T08:40:40.542Z,32.01
2022-08-16T08:41:39.441Z,32.10
2022-08-16T08:42:48.572Z,31.32
2022-08-16T08:43:41.669Z,31.80
2022-08-16T08:44:39.430Z,32.39
2022-08-16T08:45:49.345Z,32.09
2022-08-16T08:46:40.393Z,31.04
2022-08-16T08:47:39.389Z,31.92
2022-08-16T08:48:39.424Z,31.34
2022-08-16T08:49:46.756Z,31.63
2022-08-16T08:50:40.374Z,31.16
2022-08-16T08:51:41.349Z,31.66
2022-08-16T08:52:40.799Z,32.17
2022-08-16T08:53:39.353Z,32.68
2022-08-16T08:54:40.009Z,32.14
2022-08-16T08:55:39.309Z,34.68
2022-08-16T08:56:45.963Z,34.59
2022-08-16T08:57:40.725Z,34.55
2022-08-16T08:58:39.305Z,32.90
2022-08-16T08:59:40.868Z,33.94
2022-08-16T09:00:50.416Z,32.57
2022-08-16T09:01:42.668Z,32.57
2022-08-16T09:02:40.247Z,32.86
2022-08-16T09:03:39.279Z,33.16
2022-08-16T09:04:39.228Z,32.81
2022-08-16T09:05:39.477Z,33.06
2022-08-16T09:06:43.057Z,33.12
2022-08-16T09:08:00.657Z,32.76
2022-08-16T09:08:40.215Z,32.26
2022-08-16T09:09:40.994Z,33.14
2022-08-16T09:10:39.419Z,33.01
2022-08-16T09:11:40.966Z,32.26
2022-08-16T09:12:39.157Z,33.75
2022-08-16T09:13:39.149Z,34.19
2022-08-16T09:14:49.371Z,35.47
2022-08-16T09:15:40.550Z,34.28
2022-08-16T09:17:01.797Z,34.67
2022-08-16T09:17:49.249Z,34.63
2022-08-16T09:18:40.221Z,34.53
2022-08-16T09:19:40.673Z,32.46
2022-08-16T09:20:58.677Z,32.63
2022-08-16T09:21:40.187Z,32.23
2022-08-16T09:22:39.142Z,31.56
2022-08-16T09:23:39.058Z,31.90
2022-08-16T09:24:46.648Z,31.59
2022-08-16T09:25:40.037Z,31.50
2022-08-16T09:26:44.418Z,31.79
2022-08-16T09:27:57.235Z,30.73
2022-08-16T09:29:14.930Z,30.05
2022-08-16T09:29:45.417Z,30.70
2022-08-16T09:30:43.915Z,30.59
2022-08-16T09:31:40.985Z,30.02
2022-08-16T09:32:38.992Z,30.30
2022-08-16T09:33:40.011Z,30.61
2022-08-16T09:34:38.960Z,30.30
2022-08-16T09:35:39.426Z,29.73
2022-08-16T09:36:44.995Z,29.72
2022-08-16T09:37:39.960Z,29.59
2022-08-16T09:38:38.921Z,28.99
2022-08-16T09:39:41.305Z,29.16
2022-08-16T09:40:43.012Z,29.07
2022-08-16T09:41:38.897Z,28.36
2022-08-16T09:42:56.510Z,28.38
2022-08-16T09:43:58.330Z,29.37
2022-08-16T09:45:09.189Z,29.19
2022-08-16T09:45:39.857Z,29.40
2022-08-16T09:46:48.992Z,29.30
2022-08-16T09:47:56.494Z,29.18
2022-08-16T09:48:50.813Z,29.47
2022-08-16T09:49:41.191Z,30.00
2022-08-16T09:50:39.754Z,29.74
2022-08-16T09:51:38.811Z,29.84
2022-08-16T09:52:42.759Z,29.52
2022-08-16T09:53:39.914Z,29.61
2022-08-16T09:54:38.852Z,29.44
2022-08-16T09:55:44.219Z,29.03
2022-08-16T09:56:52.044Z,29.02
2022-08-16T09:57:39.780Z,29.03
2022-08-16T09:59:03.646Z,29.78
2022-08-16T09:59:41.897Z,29.66
2022-08-16T10:00:42.371Z,28.97
2022-08-16T10:01:43.697Z,28.10
2022-08-16T10:02:53.074Z,28.38
2022-08-16T10:04:02.529Z,27.80
2022-08-16T10:04:52.927Z,28.19
2022-08-16T10:05:39.709Z,27.34
2022-08-16T10:06:38.698Z,28.35
2022-08-16T10:07:45.142Z,29.35
2022-08-16T10:09:05.781Z,29.06
2022-08-16T10:09:53.634Z,29.03
2022-08-16T10:10:39.661Z,28.84
2022-08-16T10:11:50.396Z,29.33
2022-08-16T10:12:42.256Z,29.05
2022-08-16T10:13:38.621Z,29.61
2022-08-16T10:14:38.619Z,29.30
2022-08-16T10:15:38.615Z,29.21
2022-08-16T10:16:39.016Z,28.83
2022-08-16T10:17:38.837Z,28.81
2022-08-16T10:19:00.841Z,28.73
2022-08-16T10:19:39.573Z,29.22
2022-08-16T10:20:38.583Z,28.75
2022-08-16T10:21:38.552Z,28.83
2022-08-16T10:22:38.541Z,28.72
2022-08-16T10:23:38.538Z,28.51
2022-08-16T10:24:38.541Z,28.32
2022-08-16T10:27:16.381Z,29.30
2022-08-16T10:27:17.377Z,28.72
2022-08-16T10:27:45.831Z,28.88
2022-08-16T10:28:41.953Z,28.08
2022-08-16T10:29:59.934Z,27.56
2022-08-16T10:30:40.146Z,25.81
2022-08-16T10:31:45.494Z,25.62
2022-08-16T10:32:39.524Z,26.40
2022-08-16T10:33:40.255Z,25.92
2022-08-16T10:34:38.454Z,25.92
2022-08-16T10:35:46.808Z,26.54
2022-08-16T10:36:39.972Z,27.45
2022-08-16T10:37:38.445Z,29.14
2022-08-16T10:38:38.408Z,29.47
2022-08-16T10:39:41.625Z,30.41
2022-08-16T10:40:38.471Z,30.43
2022-08-16T10:41:38.429Z,30.81
2022-08-16T10:42:38.369Z,30.12
2022-08-16T10:43:38.369Z,30.29
2022-08-16T10:44:38.425Z,29.69
2022-08-16T10:45:38.378Z,30.14
2022-08-16T10:46:41.794Z,30.70
2022-08-16T10:47:38.827Z,30.47
2022-08-16T10:48:38.318Z,29.60
2022-08-16T10:49:38.316Z,29.80
2022-08-16T10:50:38.328Z,30.70
2022-08-16T10:52:02.835Z,30.87
2022-08-16T10:53:39.584Z,29.50
2022-08-16T10:54:58.592Z,28.90
2022-08-16T10:55:43.680Z,28.99
2022-08-16T10:56:52.773Z,30.82
2022-08-16T10:57:39.242Z,33.25
2022-08-16T10:58:38.240Z,35.55
2022-08-16T10:59:45.895Z,35.78
2022-08-16T11:00:39.235Z,36.46
2022-08-16T11:01:43.101Z,35.20
2022-08-16T11:03:41.795Z,35.41
2022-08-16T11:03:43.037Z,35.70
2022-08-16T11:06:39.300Z,35.68
2022-08-16T11:07:53.559Z,35.89
2022-08-16T11:08:43.404Z,37.11
2022-08-16T11:09:43.169Z,36.47
2022-08-16T11:12:07.863Z,32.73
2022-08-16T11:12:39.100Z,33.18
2022-08-16T11:14:39.115Z,30.23
2022-08-16T11:15:38.087Z,31.41
2022-08-16T11:17:39.087Z,30.33
2022-08-16T11:19:04.873Z,30.01
2022-08-16T11:20:40.695Z,30.38
2022-08-16T11:20:41.515Z,29.16
2022-08-16T11:22:23.249Z,30.88
2022-08-16T11:22:48.411Z,32.07
2022-08-16T11:23:39.010Z,32.46
2022-08-16T11:24:42.468Z,31.93
2022-08-16T11:26:39.020Z,31.35
2022-08-16T11:27:37.997Z,31.54
2022-08-16T11:29:38.959Z,32.15
2022-08-16T11:30:39.402Z,32.70
2022-08-16T11:31:37.936Z,33.31
2022-08-16T11:32:37.951Z,34.33
2022-08-16T11:33:53.539Z,34.79
2022-08-16T11:35:03.969Z,34.56
2022-08-16T11:36:22.467Z,33.22
2022-08-16T11:36:38.909Z,33.07
2022-08-16T11:38:51.572Z,31.77
2022-08-16T11:39:38.864Z,31.46
2022-08-16T11:40:37.910Z,31.75
2022-08-16T11:41:37.845Z,31.46
2022-08-16T11:42:39.133Z,31.62
2022-08-16T11:43:37.830Z,31.35
2022-08-16T11:44:52.382Z,31.54
2022-08-16T11:45:38.820Z,32.03
2022-08-16T11:46:44.088Z,31.72
2022-08-16T11:47:38.813Z,31.45
2022-08-16T11:48:38.585Z,32.56
2022-08-16T11:49:37.798Z,33.98
2022-08-16T11:50:37.768Z,36.22
2022-08-16T11:51:37.759Z,37.16
2022-08-16T11:52:37.772Z,39.36
2022-08-16T11:53:37.737Z,39.57
2022-08-16T11:54:37.729Z,41.22
2022-08-16T11:55:38.509Z,40.73
2022-08-16T11:56:37.736Z,38.79
2022-08-16T11:57:38.700Z,39.28
2022-08-16T11:58:37.706Z,39.04
2022-08-16T11:59:39.602Z,37.45
2022-08-16T12:00:51.015Z,37.32
2022-08-16T12:01:55.098Z,36.35
2022-08-16T12:02:38.777Z,36.22
2022-08-16T12:03:41.671Z,36.32
2022-08-16T12:04:37.724Z,35.83
2022-08-16T12:05:37.717Z,36.85
2022-08-16T12:06:37.618Z,38.46
2022-08-16T12:07:37.613Z,38.60
2022-08-16T12:08:37.618Z,39.20
2022-08-16T12:09:43.223Z,39.34
2022-08-16T12:10:38.581Z,39.62
2022-08-16T12:11:37.571Z,40.25
2022-08-16T12:12:37.565Z,41.13
2022-08-16T12:13:37.573Z,41.63
2022-08-16T12:14:37.712Z,41.71
2022-08-16T12:15:37.810Z,39.84
2022-08-16T12:16:37.669Z,39.92
2022-08-16T12:17:37.516Z,39.70
2022-08-16T12:18:37.529Z,39.29
2022-08-16T12:19:38.016Z,39.16
2022-08-16T12:20:37.487Z,38.73
2022-08-16T12:21:58.341Z,38.21
2022-08-16T12:22:38.491Z,37.30
2022-08-16T12:23:37.455Z,36.82
2022-08-16T12:24:37.697Z,36.88
2022-08-16T12:25:37.550Z,37.40
2022-08-16T12:26:37.430Z,36.54
2022-08-16T12:27:37.549Z,35.88
2022-08-16T12:28:54.019Z,36.02
2022-08-16T12:29:38.415Z,37.08
2022-08-16T12:30:38.632Z,36.79
2022-08-16T12:31:37.391Z,36.50
2022-08-16T12:32:41.681Z,37.20
2022-08-16T12:33:44.489Z,37.01
2022-08-16T12:34:38.356Z,37.01
2022-08-16T12:35:38.353Z,37.30
2022-08-16T12:36:37.375Z,36.79
2022-08-16T12:37:37.342Z,36.99
2022-08-16T12:38:40.886Z,36.77
2022-08-16T12:39:38.377Z,36.08
2022-08-16T12:40:38.331Z,36.36
2022-08-16T12:41:37.476Z,36.83
2022-08-16T12:42:38.295Z,36.16
2022-08-16T12:43:40.353Z,35.75
2022-08-16T12:44:38.270Z,36.25
2022-08-16T12:45:37.264Z,36.27
2022-08-16T12:46:37.262Z,36.46
2022-08-16T12:47:37.251Z,36.27
2022-08-16T12:48:37.307Z,36.46
2022-08-16T12:49:41.780Z,36.87
2022-08-16T12:50:38.228Z,37.18
2022-08-16T12:51:58.657Z,37.76
2022-08-16T12:52:41.758Z,38.06
2022-08-16T12:53:39.928Z,38.37
2022-08-16T12:54:37.209Z,38.37
2022-08-16T12:55:41.920Z,38.56
2022-08-16T12:56:38.192Z,37.20
2022-08-16T12:57:37.157Z,38.37
2022-08-16T12:58:49.858Z,37.76
2022-08-16T12:59:38.596Z,38.17
2022-08-16T13:00:37.195Z,37.39
2022-08-16T13:01:37.166Z,37.02